X  Κλείσε Στοιχεία αεροπορικών μετεωρολογικών δεδομένων METAR     EHRD Rotterdam The Hague Airport
θερμοκρασία
64°F θερμοκρασία
61°F Σημείο δρόσου
88% Υγρασία



Ανεμος
2 MPH
3 KM/H
1 M/S
2 KTS



140°
NA
Τρέχουσες συνθήκες

Κυρίως συννεφιά Κυρίως συννεφιά
πίεση 1005.08 (hPa) - 29.68 (inHg)
Ορατότητα 6 (μίλι) - 9.7 (km)
Aεροδρόμιο
Κωδικός αεροδρομίου EHRD

Τοποθεσία: Rotterdam The Hague Airport
Απόσταση: 14 (mi)

Metar:
EHRD 152325Z AUTO 14002KT 9999 BKN049 18/16 Q1005 NOSIG

ώρα: 16-07-2024 01:25 CEST